Meteo Giornale » Osservazioni meteo Italia » Resia Pass

ore: 06:55 - Osservazioni Meteo Resia Pass
Lat. 46° 50' N Lon. 10° 30' E Alt. 1800 metri s.l.m.

sereno Europe/Rome

-1 °C

Sereno

Temp. 24 Ore

-1 °C

11 °C

Nord/Nord-Est

9.3 Km/h

Dew point -2 °C

Umidità 92 %

Visibilità  10 Km

Il sole sorge alle ore 06:06

Il sole tramonta alle ore 18:40

Data e Ora Cielo e Fenomeni T °C DP °C Um. % Pres. hPa Vis. km Vento km/h
Oggi h: 06:55 sereno Sereno -1 -2 92 1015 10 N/NE 9.3
Oggi h: 05:55 sereno Sereno -1 -3 86 1015 10 N/NE 9.3
Oggi h: 04:55 sereno Sereno -1 -2 92 1015 10 N/NE 9.3
Oggi h: 03:55 sereno Sereno -0 -3 80 1016 10 N 5.5
Oggi h: 03:55 sereno Sereno 0 -2 86 1016 10 N 5.5
Oggi h: 01:55 sereno Sereno 0 -3 80 1016 10 N/NE 9.3
Oggi h: 00:55 sereno Sereno 1 -3 74 1016 10 N 0
Ieri h: 23:55 sereno Sereno 1 -3 74 1017 10 N 0
Ieri h: 21:55 sereno Sereno 3 -1 74 1017 10 N 0
Ieri h: 20:55 sereno Sereno 3 -3 64 1017 10 N 0
Ieri h: 19:55 sereno Sereno 6 -4 48 1017 10 N 0
Ieri h: 18:55 sereno Sereno 7 -6 38 1016 10 N 0
Ieri h: 17:55 poco_nuvoloso Poco Nuvoloso 9 -8 29 1016 10 SO 11.1
Ieri h: 16:55 poco_nuvoloso Poco Nuvoloso 10 -9 25 1016 10 SO 16.7
Ieri h: 15:55 poco_nuvoloso Poco Nuvoloso 11 -8 25 1017 10 S/SO 16.7
Ieri h: 14:55 poco_nuvoloso Poco Nuvoloso 11 -9 23 1018 10 S 16.7
Ieri h: 13:55 poco_nuvoloso Poco Nuvoloso 11 -4 34 1019 10 S 16.7
Ieri h: 12:55 sereno Sereno 11 -4 34 1020 10 S 16.7
Ieri h: 11:55 sereno Sereno 10 -4 36 1021 10 S 16.7
Ieri h: 10:55 sereno Sereno 10 -5 34 1022 10 S 14.8
Ieri h: 09:55 sereno Sereno 6 -1 60 1023 10 S/SO 7.4
Ieri h: 08:55 sereno Sereno 2 -0 86 1024 10 N 5.5